Time;durP1;ratioP1;P1;durP2;ratioP2;P2;SDS_P1;SDS_P2;PMS_P1;PMS_P2;Temp;Humidity;BMP_temperature;BMP_pressure;BME280_temperature;BME280_humidity;BME280_pressure;Samples;Min_cycle;Max_cycle;Signal;HPM_P1;HPM_P2
2022/05/13 00:01:37;;;;;;;1.40;1.30;;;24.50;40.40;;;;;;5057229;28;20449;-81
2022/05/13 00:04:08;;;;;;;2.30;1.13;;;24.50;40.30;;;;;;5059356;28;20446;-82
2022/05/13 00:06:38;;;;;;;1.90;1.40;;;24.50;40.50;;;;;;5056699;28;20535;-82
2022/05/13 00:09:06;;;;;;;1.20;1.10;;;24.50;40.50;;;;;;5056687;28;20562;-82
2022/05/13 00:11:34;;;;;;;1.63;1.33;;;24.50;40.40;;;;;;5056860;28;20501;-82
2022/05/13 00:14:01;;;;;;;2.50;1.10;;;24.40;40.50;;;;;;5055980;28;20454;-82
2022/05/13 00:16:29;;;;;;;1.63;1.30;;;24.40;40.40;;;;;;5057275;28;20449;-82
2022/05/13 00:18:59;;;;;;;2.40;1.00;;;24.30;40.30;;;;;;5052238;28;20502;-81
2022/05/13 00:21:27;;;;;;;3.73;1.40;;;24.30;40.40;;;;;;5056870;28;20450;-82
2022/05/13 00:23:57;;;;;;;2.20;1.57;;;24.30;40.40;;;;;;5057515;28;20477;-81
2022/05/13 00:26:25;;;;;;;1.33;1.13;;;24.10;40.40;;;;;;5056297;28;20475;-82
2022/05/13 00:28:53;;;;;;;1.80;1.40;;;24.10;40.50;;;;;;5056004;28;20424;-82
2022/05/13 00:31:22;;;;;;;2.13;1.20;;;24.10;40.50;;;;;;5050958;28;20539;-81
2022/05/13 00:33:51;;;;;;;2.37;1.57;;;24.10;40.50;;;;;;5056287;28;20784;-82
2022/05/13 00:36:19;;;;;;;4.57;1.40;;;24.10;40.40;;;;;;5056057;28;20925;-81
2022/05/13 00:38:48;;;;;;;2.10;1.37;;;24.10;40.50;;;;;;5056054;28;20466;-82
2022/05/13 00:41:18;;;;;;;4.60;1.77;;;24.00;40.70;;;;;;5055800;28;20440;-82
2022/05/13 00:43:49;;;;;;;1.20;1.10;;;24.00;40.40;;;;;;5056159;28;20449;-81
2022/05/13 00:46:18;;;;;;;1.47;1.10;;;23.90;40.60;;;;;;5055935;28;20470;-81
2022/05/13 00:48:47;;;;;;;1.50;1.40;;;23.90;40.60;;;;;;5056171;28;20450;-81
2022/05/13 00:51:21;;;;;;;2.07;1.27;;;23.90;40.80;;;;;;5055951;28;20445;-81
2022/05/13 00:53:50;;;;;;;1.90;1.37;;;23.80;40.60;;;;;;5055839;28;20442;-81
2022/05/13 00:56:19;;;;;;;1.67;1.40;;;23.80;40.70;;;;;;5056042;28;20466;-81
2022/05/13 00:58:48;;;;;;;2.90;1.10;;;23.80;40.60;;;;;;5055806;28;20471;-81
2022/05/13 01:01:16;;;;;;;1.53;1.40;;;23.80;40.70;;;;;;5057870;28;20451;-81
2022/05/13 01:03:44;;;;;;;2.07;1.10;;;23.80;40.50;;;;;;5059976;28;20405;-81
2022/05/13 01:06:14;;;;;;;2.87;1.37;;;23.70;40.70;;;;;;5059237;28;20548;-81
2022/05/13 01:08:41;;;;;;;1.63;1.20;;;23.70;40.50;;;;;;5059440;28;20448;-81
2022/05/13 01:11:13;;;;;;;1.43;1.10;;;23.60;40.70;;;;;;5059082;28;21108;-81
2022/05/13 01:13:46;;;;;;;1.23;1.00;;;23.50;40.60;;;;;;5059930;28;20523;-82
2022/05/13 01:16:15;;;;;;;1.20;1.10;;;23.60;40.80;;;;;;5059076;28;20421;-82
2022/05/13 01:18:43;;;;;;;4.33;1.40;;;23.60;40.50;;;;;;5058587;28;20511;-82
2022/05/13 01:21:15;;;;;;;1.97;1.40;;;23.50;40.60;;;;;;5059876;28;20444;-81
2022/05/13 01:23:46;;;;;;;1.43;1.30;;;23.60;40.70;;;;;;5059453;28;20424;-81
2022/05/13 01:26:16;;;;;;;1.37;1.07;;;23.60;40.70;;;;;;5059255;28;20485;-81
2022/05/13 01:28:46;;;;;;;3.43;1.37;;;23.60;40.70;;;;;;5059272;28;20493;-81
2022/05/13 01:31:25;;;;;;;4.97;1.57;;;23.60;40.80;;;;;;5059204;28;20470;-81
2022/05/13 01:33:55;;;;;;;1.40;1.30;;;23.50;40.70;;;;;;5058174;28;20455;-81
2022/05/13 01:36:23;;;;;;;1.90;1.23;;;23.50;40.70;;;;;;5059583;28;20463;-81
2022/05/13 01:38:56;;;;;;;1.20;1.10;;;23.50;40.60;;;;;;5059128;28;20447;-82
2022/05/13 01:41:24;;;;;;;2.03;1.50;;;23.40;40.50;;;;;;5056183;28;20457;-81
2022/05/13 01:43:52;;;;;;;2.47;1.27;;;23.30;40.60;;;;;;5059215;28;20417;-81
2022/05/13 01:46:21;;;;;;;3.13;1.10;;;23.30;40.90;;;;;;5058849;28;20505;-81
2022/05/13 01:48:49;;;;;;;1.63;1.17;;;23.30;40.80;;;;;;5058543;28;20876;-82
2022/05/13 01:51:17;;;;;;;1.57;1.20;;;23.40;40.70;;;;;;5058477;28;20481;-81
2022/05/13 01:53:45;;;;;;;2.03;1.30;;;23.30;40.60;;;;;;5058583;28;20502;-82
2022/05/13 01:56:16;;;;;;;1.20;1.10;;;23.30;40.60;;;;;;5058867;28;20537;-82
2022/05/13 01:58:44;;;;;;;1.67;1.27;;;23.20;40.50;;;;;;5059174;28;20464;-82
2022/05/13 02:01:12;;;;;;;2.60;1.30;;;23.20;40.50;;;;;;5058862;28;20470;-82
2022/05/13 02:03:46;;;;;;;1.90;1.20;;;23.20;40.60;;;;;;5057890;28;20458;-82
2022/05/13 02:06:17;;;;;;;2.03;1.50;;;23.30;40.60;;;;;;5057908;28;20437;-81
2022/05/13 02:08:45;;;;;;;1.33;1.23;;;23.20;40.40;;;;;;5058175;28;20479;-82
2022/05/13 02:11:14;;;;;;;1.77;1.60;;;23.10;40.60;;;;;;5057796;28;20478;-82
2022/05/13 02:13:43;;;;;;;1.33;1.17;;;23.10;40.40;;;;;;5057981;28;20505;-82
2022/05/13 02:16:12;;;;;;;3.90;1.40;;;23.00;40.40;;;;;;5058502;28;20471;-82
2022/05/13 02:18:42;;;;;;;1.10;0.80;;;23.10;40.50;;;;;;5058151;28;20992;-82
2022/05/13 02:21:11;;;;;;;2.33;1.60;;;23.10;40.40;;;;;;5059124;28;20836;-83
2022/05/13 02:23:39;;;;;;;1.57;1.47;;;23.00;40.10;;;;;;5057241;28;20454;-82
2022/05/13 02:26:08;;;;;;;1.80;1.27;;;23.10;40.40;;;;;;5058528;28;20484;-83
2022/05/13 02:28:36;;;;;;;1.53;1.23;;;23.10;40.20;;;;;;5060187;28;20612;-83
2022/05/13 02:31:06;;;;;;;1.87;1.30;;;23.00;40.10;;;;;;5060414;28;20516;-83
2022/05/13 02:33:34;;;;;;;1.40;1.30;;;23.00;40.10;;;;;;5060751;28;20471;-83
2022/05/13 02:36:02;;;;;;;3.77;1.33;;;23.10;40.00;;;;;;5062013;28;20442;-82
2022/05/13 02:38:31;;;;;;;6.23;1.40;;;23.10;39.90;;;;;;5060872;28;20480;-82
2022/05/13 02:41:14;;;;;;;2.07;1.30;;;23.10;39.80;;;;;;5039847;28;20498;-82
2022/05/13 02:43:44;;;;;;;1.50;1.40;;;23.00;39.80;;;;;;5040784;28;20449;-83
2022/05/13 02:46:14;;;;;;;5.40;1.73;;;23.10;40.50;;;;;;5041995;28;20476;-83
2022/05/13 02:48:42;;;;;;;1.63;1.40;;;23.10;39.80;;;;;;5041578;28;20467;-83
2022/05/13 02:51:10;;;;;;;2.23;1.17;;;23.00;39.70;;;;;;5042247;28;20476;-83
2022/05/13 02:53:38;;;;;;;1.23;1.13;;;23.00;39.80;;;;;;5041476;28;20433;-82
2022/05/13 02:56:09;;;;;;;3.33;1.60;;;23.00;39.60;;;;;;5049349;28;20477;-82
2022/05/13 02:58:37;;;;;;;3.70;1.30;;;23.00;39.50;;;;;;5059295;28;20436;-82
2022/05/13 03:01:06;;;;;;;1.70;1.20;;;23.00;39.70;;;;;;5058823;28;20470;-82
2022/05/13 03:03:37;;;;;;;1.57;1.30;;;23.00;39.70;;;;;;5059503;28;20428;-82
2022/05/13 03:06:07;;;;;;;1.97;1.20;;;23.00;39.70;;;;;;5059966;28;20474;-83
2022/05/13 03:08:42;;;;;;;1.50;1.20;;;23.00;39.70;;;;;;5060891;28;20508;-82
2022/05/13 03:11:12;;;;;;;1.73;1.13;;;22.90;39.70;;;;;;5059598;28;20471;-82
2022/05/13 03:13:44;;;;;;;3.83;1.53;;;22.90;39.70;;;;;;5057818;28;20454;-83
2022/05/13 03:16:32;;;;;;;1.17;1.17;;;22.90;39.60;;;;;;5059164;28;20452;-82
2022/05/13 03:19:03;;;;;;;1.53;1.30;;;23.00;39.70;;;;;;5057186;28;20530;-82
2022/05/13 03:24:38;;;;;;;1.20;1.20;;;23.00;39.50;;;;;;5056599;28;20443;-82
2022/05/13 03:27:07;;;;;;;1.67;1.57;;;23.00;39.60;;;;;;5058261;28;20528;-83
2022/05/13 03:29:36;;;;;;;3.10;1.40;;;22.90;39.40;;;;;;5056164;28;20474;-82
2022/05/13 03:32:05;;;;;;;2.50;1.23;;;22.90;39.40;;;;;;5057476;28;21011;-82
2022/05/13 03:34:37;;;;;;;1.77;1.40;;;22.90;39.50;;;;;;5057919;28;20473;-82
2022/05/13 03:37:05;;;;;;;1.87;1.40;;;22.90;39.40;;;;;;5059178;28;20451;-83
2022/05/13 03:39:44;;;;;;;1.30;1.20;;;22.90;39.40;;;;;;5058091;28;20528;-82
2022/05/13 03:42:12;;;;;;;2.50;1.37;;;22.90;39.40;;;;;;5058244;28;20417;-82
2022/05/13 03:44:40;;;;;;;2.57;1.20;;;22.90;39.30;;;;;;5057509;28;20875;-82
2022/05/13 03:47:11;;;;;;;1.77;1.20;;;22.90;39.40;;;;;;5055402;28;20451;-82
2022/05/13 03:49:42;;;;;;;2.20;1.40;;;22.90;39.40;;;;;;5056686;28;20489;-82
2022/05/13 03:52:10;;;;;;;1.77;1.13;;;22.90;39.40;;;;;;5056783;28;20443;-82
2022/05/13 03:54:40;;;;;;;1.57;1.37;;;22.90;39.30;;;;;;5056161;28;20467;-82
2022/05/13 03:57:09;;;;;;;1.20;1.10;;;22.90;39.40;;;;;;5056151;28;20446;-82
2022/05/13 03:59:37;;;;;;;1.80;1.20;;;22.80;39.30;;;;;;5056844;28;20451;-82
2022/05/13 04:02:05;;;;;;;2.13;1.13;;;22.80;39.30;;;;;;5056869;28;20446;-81
2022/05/13 04:08:56;;;;;;;3.40;1.17;;;22.80;39.30;;;;;;5057939;28;20467;-83
2022/05/13 04:10:09;;;;;;;1.87;1.30;;;22.80;39.40;;;;;;5055866;28;20540;-82
2022/05/13 04:18:09;;;;;;;1.20;1.10;;;22.80;39.40;;;;;;5057025;28;20537;-82
2022/05/13 04:20:37;;;;;;;1.77;1.30;;;22.80;39.30;;;;;;5055379;28;20552;-82
2022/05/13 04:23:06;;;;;;;2.13;1.10;;;22.80;39.40;;;;;;5056328;28;20453;-82
2022/05/13 04:25:34;;;;;;;1.20;1.10;;;22.80;39.30;;;;;;5055833;28;20504;-82
2022/05/13 04:28:02;;;;;;;1.40;1.30;;;22.80;39.40;;;;;;5055969;28;20557;-82
2022/05/13 04:30:30;;;;;;;2.63;1.70;;;22.80;39.30;;;;;;5055816;28;20504;-83
2022/05/13 04:32:58;;;;;;;1.40;1.30;;;22.90;39.30;;;;;;5055936;28;20452;-82
2022/05/13 04:35:26;;;;;;;1.63;1.33;;;22.80;39.40;;;;;;5060484;28;20484;-82
2022/05/13 04:37:54;;;;;;;1.40;1.30;;;22.80;39.20;;;;;;5062025;28;20533;-83
2022/05/13 04:40:24;;;;;;;2.70;1.30;;;22.80;39.30;;;;;;5061641;28;20517;-82
2022/05/13 04:42:51;;;;;;;3.50;1.83;;;22.80;39.30;;;;;;5061781;28;20488;-82
2022/05/13 04:45:24;;;;;;;2.33;0.97;;;22.80;39.30;;;;;;5061132;28;20442;-82
2022/05/13 04:50:38;;;;;;;2.40;1.20;;;22.80;39.30;;;;;;5062246;28;21052;-82
2022/05/13 04:53:06;;;;;;;1.50;1.40;;;22.80;39.30;;;;;;5061698;28;20910;-82
2022/05/13 04:55:36;;;;;;;1.63;1.10;;;22.80;39.50;;;;;;5060985;28;20449;-82
2022/05/13 04:58:05;;;;;;;1.83;1.20;;;22.80;39.30;;;;;;5060520;28;20537;-82
2022/05/13 05:00:33;;;;;;;1.30;1.20;;;22.80;39.30;;;;;;5061304;28;20464;-82
2022/05/13 05:03:01;;;;;;;1.20;1.10;;;22.80;39.30;;;;;;5060861;28;20500;-82
2022/05/13 05:05:29;;;;;;;1.70;1.40;;;22.80;39.10;;;;;;5059530;28;20485;-82
2022/05/13 05:07:58;;;;;;;1.50;1.40;;;22.80;39.90;;;;;;5060013;28;20474;-82
2022/05/13 05:10:26;;;;;;;1.57;1.20;;;22.80;39.40;;;;;;5059023;28;20541;-82
2022/05/13 05:12:55;;;;;;;1.50;1.00;;;22.80;39.20;;;;;;5059662;28;20481;-82
2022/05/13 05:15:24;;;;;;;2.03;1.53;;;22.80;39.20;;;;;;5059373;28;20481;-82
2022/05/13 05:17:52;;;;;;;1.33;1.23;;;22.80;39.30;;;;;;5059587;28;20518;-83
2022/05/13 05:20:20;;;;;;;3.33;1.20;;;22.80;39.30;;;;;;5060182;28;20441;-82
2022/05/13 05:22:48;;;;;;;1.30;1.20;;;22.70;39.30;;;;;;5059249;28;20421;-82
2022/05/13 05:25:17;;;;;;;2.23;1.27;;;22.70;39.40;;;;;;5059985;28;20445;-82
2022/05/13 05:27:45;;;;;;;2.63;1.37;;;22.70;39.20;;;;;;5059228;28;20929;-82
2022/05/13 05:30:15;;;;;;;1.70;1.43;;;22.80;39.30;;;;;;5059165;28;20822;-82
2022/05/13 05:32:43;;;;;;;2.60;1.70;;;22.80;39.30;;;;;;5058981;28;20413;-82
2022/05/13 05:35:17;;;;;;;1.50;1.40;;;22.80;39.30;;;;;;5058806;28;20481;-82
2022/05/13 05:37:46;;;;;;;1.30;1.20;;;22.80;39.50;;;;;;5058581;28;20450;-82
2022/05/13 05:40:14;;;;;;;1.40;1.30;;;22.80;39.40;;;;;;5058326;28;20554;-82
2022/05/13 05:42:43;;;;;;;1.67;1.27;;;22.80;39.40;;;;;;5060472;28;20462;-82
2022/05/13 05:45:12;;;;;;;1.47;1.47;;;22.80;39.50;;;;;;5058001;28;20508;-82
2022/05/13 05:47:44;;;;;;;1.60;1.50;;;22.70;39.30;;;;;;5059293;28;20432;-83
2022/05/13 05:50:14;;;;;;;1.60;1.40;;;22.80;39.40;;;;;;5058181;28;20452;-82
2022/05/13 05:53:01;;;;;;;3.00;1.60;;;22.70;39.30;;;;;;5058139;28;20541;-83
2022/05/13 05:58:25;;;;;;;2.40;1.40;;;22.80;39.40;;;;;;5058178;28;20414;-82
2022/05/13 06:00:55;;;;;;;1.43;1.33;;;22.80;39.30;;;;;;5057431;28;20553;-82
2022/05/13 06:03:25;;;;;;;1.87;1.40;;;22.70;39.30;;;;;;5057966;28;20450;-82
2022/05/13 06:05:56;;;;;;;1.87;1.77;;;22.80;39.40;;;;;;5059155;28;20450;-82
2022/05/13 06:08:24;;;;;;;1.53;1.33;;;22.80;39.40;;;;;;5059377;28;20418;-82
2022/05/13 06:10:52;;;;;;;1.20;1.10;;;22.80;39.30;;;;;;5060479;28;20473;-82
2022/05/13 06:13:21;;;;;;;3.60;1.77;;;22.80;39.60;;;;;;5059367;28;20485;-82
2022/05/13 06:15:49;;;;;;;1.40;1.27;;;22.80;39.30;;;;;;5060819;28;20421;-83
2022/05/13 06:18:17;;;;;;;1.47;1.30;;;22.80;39.30;;;;;;5060580;28;20446;-82
2022/05/13 06:20:48;;;;;;;1.80;1.40;;;22.80;39.40;;;;;;5060682;28;20459;-82
2022/05/13 06:23:16;;;;;;;3.00;1.57;;;22.80;39.20;;;;;;5060932;28;20489;-82
2022/05/13 06:25:44;;;;;;;2.23;1.60;;;22.90;39.30;;;;;;5061839;28;20477;-82
2022/05/13 06:28:13;;;;;;;2.03;1.43;;;22.90;39.40;;;;;;5061313;28;20421;-82
2022/05/13 06:30:41;;;;;;;2.10;1.60;;;22.90;39.20;;;;;;5060986;28;20478;-83
2022/05/13 06:33:09;;;;;;;4.60;1.57;;;22.90;39.30;;;;;;5060906;28;20474;-82
2022/05/13 06:35:39;;;;;;;2.30;1.30;;;22.90;39.40;;;;;;5058964;28;20817;-82
2022/05/13 06:38:11;;;;;;;2.90;1.30;;;22.90;39.30;;;;;;5060280;28;20457;-83
2022/05/13 06:40:39;;;;;;;2.00;1.20;;;22.90;39.20;;;;;;5062010;28;20516;-82
2022/05/13 06:43:07;;;;;;;3.67;1.67;;;23.00;39.30;;;;;;5060845;28;20421;-82
2022/05/13 06:45:35;;;;;;;1.10;1.10;;;23.00;39.20;;;;;;5060609;28;20456;-82
2022/05/13 06:48:04;;;;;;;1.40;1.17;;;23.10;39.10;;;;;;5060555;28;20425;-84
2022/05/13 06:50:33;;;;;;;1.93;1.40;;;23.20;39.10;;;;;;5058001;28;20559;-83
2022/05/13 06:53:01;;;;;;;2.03;1.30;;;23.20;38.90;;;;;;5060791;28;20405;-83
2022/05/13 06:55:30;;;;;;;2.10;1.10;;;23.20;38.90;;;;;;5059969;28;20425;-82
2022/05/13 06:57:59;;;;;;;4.20;1.30;;;23.30;38.90;;;;;;5061623;28;20478;-83
2022/05/13 07:00:27;;;;;;;1.80;1.40;;;23.40;39.00;;;;;;5062398;28;20490;-82
2022/05/13 07:02:55;;;;;;;2.67;1.60;;;23.50;38.80;;;;;;5059376;28;20443;-83
2022/05/13 07:05:23;;;;;;;3.80;1.80;;;23.50;38.50;;;;;;5052262;28;20549;-82
2022/05/13 07:07:52;;;;;;;1.43;1.33;;;23.50;38.40;;;;;;5047220;28;20446;-83
2022/05/13 07:10:20;;;;;;;2.37;1.40;;;23.60;38.40;;;;;;5057965;28;20474;-82
2022/05/13 07:12:49;;;;;;;1.40;1.30;;;23.70;38.20;;;;;;5060724;28;20447;-82
2022/05/13 07:15:18;;;;;;;1.57;1.40;;;23.70;38.00;;;;;;5065899;28;20481;-82
2022/05/13 07:17:47;;;;;;;4.70;1.50;;;23.80;38.00;;;;;;5058631;28;20496;-82
2022/05/13 07:20:15;;;;;;;2.63;1.60;;;23.80;37.80;;;;;;5058897;28;20449;-82
2022/05/13 07:22:44;;;;;;;2.20;1.70;;;23.90;37.80;;;;;;5059003;28;20534;-82
2022/05/13 07:25:12;;;;;;;1.90;1.70;;;23.90;37.60;;;;;;5054092;28;20444;-81
2022/05/13 07:27:40;;;;;;;3.20;1.50;;;24.00;37.60;;;;;;5060948;28;20501;-82
2022/05/13 07:30:11;;;;;;;3.70;1.73;;;24.10;37.60;;;;;;5063890;28;20456;-82
2022/05/13 07:32:39;;;;;;;3.37;1.63;;;24.10;37.30;;;;;;5064215;28;20510;-82
2022/05/13 07:35:09;;;;;;;5.93;2.00;;;24.20;37.30;;;;;;5065741;28;20421;-82
2022/05/13 07:37:37;;;;;;;2.80;1.63;;;24.20;37.30;;;;;;5060758;28;20443;-82
2022/05/13 07:42:52;;;;;;;3.10;1.73;;;24.40;37.20;;;;;;5064836;28;20425;-82
2022/05/13 07:45:22;;;;;;;2.60;1.53;;;24.50;37.00;;;;;;5062195;28;20460;-82
2022/05/13 07:47:50;;;;;;;2.63;1.70;;;24.50;37.00;;;;;;5060847;28;20417;-82
2022/05/13 07:50:18;;;;;;;3.20;1.60;;;24.60;37.00;;;;;;5056480;28;20565;-82
2022/05/13 07:52:46;;;;;;;2.10;1.50;;;24.60;36.80;;;;;;5058404;28;20818;-82
2022/05/13 07:55:15;;;;;;;3.57;1.67;;;24.60;36.80;;;;;;5055894;28;20450;-82
2022/05/13 07:57:44;;;;;;;3.93;1.70;;;24.70;36.60;;;;;;5056957;28;20417;-82
2022/05/13 08:00:26;;;;;;;3.20;1.90;;;24.80;36.60;;;;;;5057293;28;20441;-82
2022/05/13 08:02:57;;;;;;;11.37;1.80;;;24.80;36.60;;;;;;5037505;28;20445;-82
2022/05/13 08:05:26;;;;;;;4.10;1.60;;;24.80;36.50;;;;;;5037368;28;20503;-82
2022/05/13 08:08:06;;;;;;;3.93;1.70;;;24.80;36.50;;;;;;5038350;28;20451;-81
2022/05/13 08:10:34;;;;;;;4.40;1.77;;;24.90;36.50;;;;;;5050669;28;20541;-82
2022/05/13 08:13:02;;;;;;;6.37;1.60;;;25.00;36.40;;;;;;5063857;28;20477;-82
2022/05/13 08:15:30;;;;;;;3.17;1.50;;;25.00;36.30;;;;;;5063613;28;20425;-82
2022/05/13 08:18:00;;;;;;;4.50;1.70;;;25.10;36.40;;;;;;5062752;28;20474;-82
2022/05/13 08:20:29;;;;;;;2.47;1.50;;;25.20;36.30;;;;;;5065591;28;20433;-82
2022/05/13 08:22:57;;;;;;;3.00;1.57;;;25.20;36.10;;;;;;5053280;28;20509;-83
2022/05/13 08:25:25;;;;;;;4.07;1.60;;;25.30;36.30;;;;;;5044141;28;20422;-81
2022/05/13 08:27:52;;;;;;;4.60;1.80;;;25.30;36.00;;;;;;5058200;28;20454;-81
2022/05/13 08:30:21;;;;;;;4.10;1.80;;;25.40;36.10;;;;;;5048926;28;20558;-82
2022/05/13 08:32:49;;;;;;;2.70;1.50;;;25.50;36.00;;;;;;5043865;28;20483;-81
2022/05/13 08:35:21;;;;;;;3.17;1.93;;;25.40;35.90;;;;;;5055487;28;20452;-82
2022/05/13 08:37:51;;;;;;;1.73;1.40;;;25.40;36.00;;;;;;5065806;28;20431;-82
2022/05/13 08:40:23;;;;;;;2.07;1.47;;;25.40;36.00;;;;;;5044461;28;20464;-81
2022/05/13 08:42:51;;;;;;;4.10;1.87;;;25.40;36.00;;;;;;5043218;28;20414;-82
2022/05/13 08:45:20;;;;;;;2.40;1.50;;;25.40;35.90;;;;;;5056845;28;20425;-81
2022/05/13 08:47:53;;;;;;;4.47;1.60;;;25.50;36.20;;;;;;5060773;28;20450;-82
2022/05/13 08:50:25;;;;;;;4.53;1.90;;;25.60;36.10;;;;;;5043405;28;20471;-83
2022/05/13 08:53:09;;;;;;;3.27;1.60;;;25.70;36.00;;;;;;5045949;28;20450;-83
2022/05/13 08:55:40;;;;;;;4.33;1.80;;;25.70;35.90;;;;;;5062441;28;20459;-82
2022/05/13 08:58:11;;;;;;;5.60;1.73;;;25.70;36.00;;;;;;5062293;28;20423;-82
2022/05/13 09:00:40;;;;;;;3.30;1.97;;;25.60;35.90;;;;;;5062574;28;20470;-82
2022/05/13 09:03:13;;;;;;;5.20;1.70;;;25.70;36.00;;;;;;5059492;28;20418;-82
2022/05/13 09:05:49;;;;;;;3.90;1.50;;;25.70;36.00;;;;;;5060805;28;20431;-82
2022/05/13 09:08:17;;;;;;;3.37;1.50;;;25.60;36.10;;;;;;5044592;28;20449;-81
2022/05/13 09:10:55;;;;;;;5.70;1.63;;;25.70;36.20;;;;;;5044442;28;20474;-81
2022/05/13 09:13:27;;;;;;;3.70;1.57;;;25.80;36.20;;;;;;5045066;28;20452;-82
2022/05/13 09:15:56;;;;;;;2.50;1.50;;;26.00;36.40;;;;;;5044511;28;20472;-80
2022/05/13 09:18:33;;;;;;;1.93;1.57;;;26.00;36.00;;;;;;5063678;28;20450;-81
2022/05/13 09:21:04;;;;;;;1.97;1.60;;;25.90;36.00;;;;;;5060582;28;20458;-82
2022/05/13 09:23:32;;;;;;;3.77;1.50;;;25.90;36.10;;;;;;5055699;28;20982;-82
2022/05/13 09:26:09;;;;;;;2.10;1.60;;;26.00;36.30;;;;;;5061827;28;20465;-81
2022/05/13 09:28:37;;;;;;;5.30;1.50;;;26.20;36.00;;;;;;5045233;28;20460;-82
2022/05/13 09:31:08;;;;;;;3.80;1.57;;;26.20;35.90;;;;;;5041904;28;20600;-82
2022/05/13 09:33:37;;;;;;;2.90;1.77;;;26.20;35.80;;;;;;5050190;28;20447;-83
2022/05/13 09:36:08;;;;;;;4.77;1.93;;;26.20;35.80;;;;;;5064446;28;20480;-82
2022/05/13 09:38:42;;;;;;;3.07;1.90;;;26.20;35.80;;;;;;5067467;28;20421;-80
2022/05/13 09:41:11;;;;;;;1.70;1.43;;;26.10;35.70;;;;;;5054234;28;20459;-81
2022/05/13 09:43:42;;;;;;;2.30;1.40;;;26.00;35.80;;;;;;5043697;28;20423;-81
2022/05/13 09:46:11;;;;;;;2.97;1.57;;;25.90;35.90;;;;;;5044320;28;20414;-81
2022/05/13 09:48:41;;;;;;;3.63;1.50;;;25.80;36.00;;;;;;5054547;28;20471;-81
2022/05/13 09:51:26;;;;;;;1.93;1.33;;;25.70;36.30;;;;;;5062676;28;20505;-81
2022/05/13 09:54:05;;;;;;;1.40;1.23;;;25.80;36.20;;;;;;5063973;28;20982;-82
2022/05/13 09:56:38;;;;;;;4.27;1.67;;;25.80;36.20;;;;;;5049984;28;20478;-81
2022/05/13 09:59:08;;;;;;;2.53;1.60;;;25.80;36.10;;;;;;5058000;28;20414;-80
2022/05/13 10:01:38;;;;;;;2.90;1.67;;;25.80;36.20;;;;;;5058122;28;20459;-81
2022/05/13 10:04:30;;;;;;;3.13;1.30;;;25.80;36.10;;;;;;5047856;28;20438;-81
2022/05/13 10:07:19;;;;;;;4.40;1.73;;;25.90;36.10;;;;;;5045285;28;20421;-82
2022/05/13 10:15:45;;;;;;;1.80;1.30;;;26.50;35.60;;;;;;5038970;28;20445;-82
2022/05/13 10:18:17;;;;;;;2.10;1.30;;;26.60;35.20;;;;;;5038615;28;20418;-82
2022/05/13 10:20:46;;;;;;;2.20;1.27;;;26.70;35.10;;;;;;5052079;28;20819;-81
2022/05/13 10:23:18;;;;;;;2.23;1.20;;;26.90;34.90;;;;;;5059518;28;20450;-80
2022/05/13 10:25:54;;;;;;;1.93;1.30;;;26.90;34.70;;;;;;5057709;28;20438;-80
2022/05/13 10:28:24;;;;;;;3.33;1.10;;;27.00;34.50;;;;;;5061126;28;20559;-81
2022/05/13 10:30:57;;;;;;;4.00;1.10;;;27.10;34.60;;;;;;5059653;28;20550;-80
2022/05/13 10:33:28;;;;;;;1.30;1.20;;;27.10;34.30;;;;;;5058505;28;20429;-81
2022/05/13 10:35:58;;;;;;;1.30;1.10;;;27.10;34.10;;;;;;5047989;28;20453;-81
2022/05/13 10:38:31;;;;;;;2.07;1.40;;;27.10;34.20;;;;;;5040136;28;21003;-81
2022/05/13 10:41:04;;;;;;;3.60;1.50;;;27.10;34.20;;;;;;5056276;28;20457;-80
2022/05/13 10:43:52;;;;;;;3.37;1.20;;;27.00;34.10;;;;;;5056817;28;20433;-81
2022/05/13 10:46:44;;;;;;;1.93;1.43;;;26.90;34.30;;;;;;5058757;28;20508;-81
2022/05/13 10:49:46;;;;;;;1.50;1.10;;;26.80;34.60;;;;;;5048518;28;20816;-81
2022/05/13 10:52:47;;;;;;;2.63;1.13;;;26.80;34.70;;;;;;5037613;28;20536;-81
2022/05/13 10:55:32;;;;;;;5.17;1.70;;;27.00;34.50;;;;;;5038325;28;20447;-81
2022/05/13 10:58:09;;;;;;;2.60;1.30;;;27.10;34.30;;;;;;5038126;28;20451;-82
2022/05/13 11:00:49;;;;;;;2.57;1.40;;;27.20;34.20;;;;;;5037736;28;20468;-81
2022/05/13 11:03:36;;;;;;;2.80;1.37;;;27.20;34.00;;;;;;5039093;28;20470;-81
2022/05/13 11:06:19;;;;;;;2.73;0.97;;;27.20;34.10;;;;;;5048456;28;20857;-82
2022/05/13 11:08:50;;;;;;;2.70;1.50;;;27.20;34.20;;;;;;5044031;28;20434;-81
2022/05/13 11:11:48;;;;;;;4.10;1.20;;;27.30;34.20;;;;;;5058470;28;20442;-81
2022/05/13 11:14:33;;;;;;;1.37;1.20;;;27.40;33.90;;;;;;5052642;28;20478;-80
2022/05/13 11:17:09;;;;;;;3.07;1.40;;;27.60;33.80;;;;;;5040702;28;20432;-80
2022/05/13 11:19:45;;;;;;;2.13;1.10;;;27.90;33.50;;;;;;5046908;28;20469;-82
2022/05/13 11:22:33;;;;;;;2.73;1.33;;;28.10;33.10;;;;;;5061460;28;20813;-80
2022/05/13 11:31:01;;;;;;;3.00;1.50;;;27.60;33.20;;;;;;5054302;28;20455;-79
2022/05/13 11:33:40;;;;;;;6.73;1.83;;;27.50;33.80;;;;;;5056392;28;20452;-79
2022/05/13 11:36:25;;;;;;;3.00;1.60;;;27.50;33.90;;;;;;5055742;28;20457;-79
2022/05/13 11:39:19;;;;;;;2.70;1.27;;;27.50;34.00;;;;;;5056435;28;20446;-80
2022/05/13 11:41:59;;;;;;;1.97;1.30;;;27.40;34.10;;;;;;5043435;28;20430;-80
2022/05/13 11:44:46;;;;;;;1.93;1.33;;;27.80;35.40;;;;;;5055330;28;20409;-81
2022/05/13 11:47:16;;;;;;;3.80;1.20;;;29.00;33.30;;;;;;5054364;28;20589;-80
2022/05/13 11:49:46;;;;;;;1.87;1.60;;;29.50;32.90;;;;;;5055382;28;20538;-80
2022/05/13 11:52:48;;;;;;;1.20;1.10;;;30.10;33.10;;;;;;5055520;28;20470;-80
2022/05/13 11:55:22;;;;;;;3.70;1.27;;;31.80;31.10;;;;;;5047952;28;20533;-80
2022/05/13 11:57:50;;;;;;;2.60;1.10;;;33.10;29.60;;;;;;5035570;28;20449;-80
2022/05/13 12:00:42;;;;;;;1.27;1.17;;;32.80;28.30;;;;;;5035197;28;20554;-79
2022/05/13 12:03:17;;;;;;;1.40;1.17;;;32.10;28.70;;;;;;5031942;28;20447;-80
2022/05/13 12:05:58;;;;;;;0.97;0.93;;;31.40;29.20;;;;;;5050193;28;20445;-79
2022/05/13 12:08:30;;;;;;;2.07;1.20;;;30.80;29.80;;;;;;5054905;28;20446;-80
2022/05/13 12:11:31;;;;;;;1.20;1.10;;;30.40;30.30;;;;;;5054608;28;20508;-79
2022/05/13 12:14:06;;;;;;;2.33;1.63;;;30.20;30.70;;;;;;5055054;28;20465;-79
2022/05/13 12:16:38;;;;;;;2.73;1.17;;;29.90;30.90;;;;;;5054821;28;20500;-79
2022/05/13 12:19:23;;;;;;;1.33;0.90;;;29.70;31.30;;;;;;5054308;28;20502;-80
2022/05/13 12:21:56;;;;;;;1.27;1.03;;;29.40;31.60;;;;;;5053855;28;20444;-80
2022/05/13 12:24:25;;;;;;;3.70;1.30;;;29.20;31.90;;;;;;5054930;28;20510;-79
2022/05/13 12:27:07;;;;;;;2.43;1.10;;;29.20;32.20;;;;;;5050325;28;20477;-79
2022/05/13 12:29:46;;;;;;;2.40;1.23;;;29.30;32.40;;;;;;5054646;28;20464;-80
2022/05/13 12:32:23;;;;;;;1.13;1.03;;;29.20;32.10;;;;;;5045649;28;20478;-80
2022/05/13 12:37:58;;;;;;;1.10;1.00;;;29.00;32.60;;;;;;5033867;28;20459;-80
2022/05/13 12:40:30;;;;;;;1.00;0.90;;;29.20;32.60;;;;;;5050265;28;20858;-80
2022/05/13 12:43:00;;;;;;;4.63;1.43;;;29.40;32.30;;;;;;5054211;28;20537;-80
2022/05/13 12:46:00;;;;;;;1.80;1.20;;;29.20;32.00;;;;;;5054615;28;20471;-79
2022/05/13 12:48:29;;;;;;;1.20;1.10;;;28.90;32.40;;;;;;5052483;28;20443;-80
2022/05/13 12:51:17;;;;;;;1.43;1.33;;;28.80;32.70;;;;;;5052167;28;20445;-79
2022/05/13 12:53:48;;;;;;;1.57;1.13;;;28.70;32.90;;;;;;5034330;28;20449;-79
2022/05/13 12:56:23;;;;;;;1.67;1.30;;;28.50;33.10;;;;;;5047652;28;20525;-80
2022/05/13 12:58:55;;;;;;;1.87;1.23;;;28.50;33.20;;;;;;5057216;28;20456;-79
2022/05/13 13:01:23;;;;;;;2.20;1.17;;;28.40;33.40;;;;;;5038637;28;20489;-80
2022/05/13 13:03:53;;;;;;;1.50;1.20;;;28.30;33.50;;;;;;5047020;28;20447;-79
2022/05/13 13:06:21;;;;;;;2.60;1.20;;;28.40;33.70;;;;;;5058156;28;20460;-80
2022/05/13 13:08:51;;;;;;;1.53;1.00;;;28.90;34.20;;;;;;5056139;28;20474;-80
2022/05/13 13:11:27;;;;;;;1.43;1.10;;;29.30;33.00;;;;;;5057322;28;20465;-80
2022/05/13 13:13:57;;;;;;;2.60;1.20;;;29.50;32.40;;;;;;5057431;28;20552;-80
2022/05/13 13:16:35;;;;;;;4.00;1.33;;;29.40;32.20;;;;;;5039499;28;20482;-80
2022/05/13 13:19:10;;;;;;;1.10;1.00;;;29.30;32.30;;;;;;5051191;28;20450;-80
2022/05/13 13:21:38;;;;;;;2.67;1.17;;;29.10;32.40;;;;;;5056091;28;20911;-80
2022/05/13 13:24:19;;;;;;;1.10;1.00;;;29.00;32.60;;;;;;5037398;28;20475;-79
2022/05/13 13:26:48;;;;;;;1.93;1.37;;;28.90;33.40;;;;;;5038673;28;20542;-79
2022/05/13 13:29:17;;;;;;;1.10;1.00;;;29.00;32.90;;;;;;5040509;28;20459;-79
2022/05/13 13:31:48;;;;;;;1.53;1.30;;;28.90;32.80;;;;;;5057740;28;20417;-80
2022/05/13 13:34:26;;;;;;;1.30;1.20;;;28.90;32.80;;;;;;5058007;28;20497;-79
2022/05/13 13:36:54;;;;;;;1.43;1.33;;;28.80;32.70;;;;;;5057666;28;20570;-80
2022/05/13 13:39:42;;;;;;;1.40;1.30;;;28.70;32.90;;;;;;5039926;28;20470;-80
2022/05/13 13:42:12;;;;;;;1.87;1.30;;;28.50;33.10;;;;;;5037203;28;20531;-80
2022/05/13 13:44:41;;;;;;;1.77;1.63;;;28.30;33.30;;;;;;5038168;28;20822;-80
2022/05/13 13:47:13;;;;;;;1.37;1.27;;;28.30;33.60;;;;;;5051752;28;20458;-84